sensor_id;sensor_type;location;lat;lon;timestamp;pressure;altitude;pressure_sealevel;temperature;humidity
35519;BME280;21627;48.216;16.482;2023-07-13T00:01:06;99521.22;;;20.53;100.00
35519;BME280;21627;48.216;16.482;2023-07-13T00:03:33;99517.84;;;20.51;100.00
35519;BME280;21627;48.216;16.482;2023-07-13T00:06:02;99515.28;;;20.50;100.00
35519;BME280;21627;48.216;16.482;2023-07-13T00:08:31;99517.97;;;20.48;100.00
35519;BME280;21627;48.216;16.482;2023-07-13T00:11:03;99516.41;;;20.44;100.00
35519;BME280;21627;48.216;16.482;2023-07-13T00:13:30;99510.38;;;20.42;100.00
35519;BME280;21627;48.216;16.482;2023-07-13T00:15:58;99500.81;;;20.41;100.00
35519;BME280;21627;48.216;16.482;2023-07-13T00:18:26;99507.88;;;20.39;100.00
35519;BME280;21627;48.216;16.482;2023-07-13T00:20:57;99494.81;;;20.38;100.00
35519;BME280;21627;48.216;16.482;2023-07-13T00:23:38;99492.19;;;20.38;100.00
35519;BME280;21627;48.216;16.482;2023-07-13T00:26:08;99484.44;;;20.35;100.00
35519;BME280;21627;48.216;16.482;2023-07-13T00:28:37;99487.03;;;20.36;100.00
35519;BME280;21627;48.216;16.482;2023-07-13T00:31:04;99483.47;;;20.37;100.00
35519;BME280;21627;48.216;16.482;2023-07-13T00:33:35;99474.66;;;20.38;100.00
35519;BME280;21627;48.216;16.482;2023-07-13T00:36:02;99467.13;;;20.30;100.00
35519;BME280;21627;48.216;16.482;2023-07-13T00:38:30;99472.38;;;20.30;100.00
35519;BME280;21627;48.216;16.482;2023-07-13T00:40:57;99473.34;;;20.28;100.00
35519;BME280;21627;48.216;16.482;2023-07-13T00:43:27;99468.94;;;20.28;100.00
35519;BME280;21627;48.216;16.482;2023-07-13T00:46:34;99476.06;;;20.26;100.00
35519;BME280;21627;48.216;16.482;2023-07-13T00:49:06;99476.13;;;20.25;100.00
35519;BME280;21627;48.216;16.482;2023-07-13T00:51:50;99477.91;;;20.24;100.00
35519;BME280;21627;48.216;16.482;2023-07-13T00:54:25;99485.03;;;20.21;100.00
35519;BME280;21627;48.216;16.482;2023-07-13T00:56:59;99459.13;;;20.13;100.00
35519;BME280;21627;48.216;16.482;2023-07-13T00:59:27;99453.78;;;20.16;100.00
35519;BME280;21627;48.216;16.482;2023-07-13T01:01:54;99451.16;;;20.16;100.00
35519;BME280;21627;48.216;16.482;2023-07-13T01:04:25;99440.91;;;20.10;100.00
35519;BME280;21627;48.216;16.482;2023-07-13T01:06:53;99446.16;;;20.10;100.00
35519;BME280;21627;48.216;16.482;2023-07-13T01:09:20;99427.97;;;20.05;100.00
35519;BME280;21627;48.216;16.482;2023-07-13T01:11:48;99424.34;;;20.08;100.00
35519;BME280;21627;48.216;16.482;2023-07-13T01:14:16;99418.41;;;20.04;100.00
35519;BME280;21627;48.216;16.482;2023-07-13T01:16:45;99434.94;;;20.06;100.00
35519;BME280;21627;48.216;16.482;2023-07-13T01:19:41;99436.91;;;20.01;100.00
35519;BME280;21627;48.216;16.482;2023-07-13T01:22:14;99436.13;;;19.99;100.00
35519;BME280;21627;48.216;16.482;2023-07-13T01:24:45;99435.34;;;19.97;100.00
35519;BME280;21627;48.216;16.482;2023-07-13T01:27:19;99440.59;;;19.97;100.00
35519;BME280;21627;48.216;16.482;2023-07-13T01:29:47;99444.94;;;19.98;100.00
35519;BME280;21627;48.216;16.482;2023-07-13T01:32:20;99441.56;;;19.95;100.00
35519;BME280;21627;48.216;16.482;2023-07-13T01:34:51;99426.69;;;19.95;100.00
35519;BME280;21627;48.216;16.482;2023-07-13T01:37:23;99434.63;;;19.94;100.00
35519;BME280;21627;48.216;16.482;2023-07-13T01:39:50;99426.09;;;19.88;100.00
35519;BME280;21627;48.216;16.482;2023-07-13T01:42:17;99432.06;;;19.92;100.00
35519;BME280;21627;48.216;16.482;2023-07-13T01:44:44;99425.97;;;19.92;100.00
35519;BME280;21627;48.216;16.482;2023-07-13T01:47:11;99418.44;;;19.84;100.00
35519;BME280;21627;48.216;16.482;2023-07-13T01:49:39;99419.41;;;19.81;100.00
35519;BME280;21627;48.216;16.482;2023-07-13T01:52:06;99406.44;;;19.78;100.00
35519;BME280;21627;48.216;16.482;2023-07-13T01:54:36;99393.38;;;19.77;100.00
35519;BME280;21627;48.216;16.482;2023-07-13T01:57:04;99395.81;;;19.81;100.00
35519;BME280;21627;48.216;16.482;2023-07-13T01:59:31;99395.16;;;19.76;100.00
35519;BME280;21627;48.216;16.482;2023-07-13T02:02:00;99394.09;;;19.80;100.00
35519;BME280;21627;48.216;16.482;2023-07-13T02:04:27;99402.75;;;19.82;100.00
35519;BME280;21627;48.216;16.482;2023-07-13T02:06:54;99401.91;;;19.82;100.00
35519;BME280;21627;48.216;16.482;2023-07-13T02:09:22;99409.50;;;19.88;100.00
35519;BME280;21627;48.216;16.482;2023-07-13T02:11:49;99409.56;;;19.86;100.00
35519;BME280;21627;48.216;16.482;2023-07-13T02:14:16;99415.53;;;19.90;100.00
35519;BME280;21627;48.216;16.482;2023-07-13T02:16:44;99418.81;;;19.95;100.00
35519;BME280;21627;48.216;16.482;2023-07-13T02:19:11;99418.00;;;19.93;100.00
35519;BME280;21627;48.216;16.482;2023-07-13T02:21:38;99432.66;;;19.99;100.00
35519;BME280;21627;48.216;16.482;2023-07-13T02:24:05;99440.38;;;20.02;100.00
35519;BME280;21627;48.216;16.482;2023-07-13T02:26:32;99441.97;;;20.06;100.00
35519;BME280;21627;48.216;16.482;2023-07-13T02:28:59;99458.09;;;20.17;100.00
35519;BME280;21627;48.216;16.482;2023-07-13T02:31:26;99478.59;;;20.28;100.00
35519;BME280;21627;48.216;16.482;2023-07-13T02:33:54;99483.81;;;20.69;100.00
35519;BME280;21627;48.216;16.482;2023-07-13T02:36:21;99496.22;;;20.65;100.00
35519;BME280;21627;48.216;16.482;2023-07-13T02:38:50;99505.53;;;20.72;100.00
35519;BME280;21627;48.216;16.482;2023-07-13T02:41:17;99507.53;;;20.67;100.00
35519;BME280;21627;48.216;16.482;2023-07-13T02:43:44;99536.13;;;20.73;100.00
35519;BME280;21627;48.216;16.482;2023-07-13T02:46:11;99549.28;;;20.73;100.00
35519;BME280;21627;48.216;16.482;2023-07-13T02:48:39;99569.59;;;20.89;100.00
35519;BME280;21627;48.216;16.482;2023-07-13T02:51:07;99560.88;;;20.88;100.00
35519;BME280;21627;48.216;16.482;2023-07-13T02:53:35;99574.31;;;21.01;100.00
35519;BME280;21627;48.216;16.482;2023-07-13T02:56:04;99580.19;;;21.06;100.00
35519;BME280;21627;48.216;16.482;2023-07-13T02:58:31;99588.31;;;21.21;100.00
35519;BME280;21627;48.216;16.482;2023-07-13T03:00:59;99597.25;;;21.35;100.00
35519;BME280;21627;48.216;16.482;2023-07-13T03:03:32;99600.69;;;21.37;100.00
35519;BME280;21627;48.216;16.482;2023-07-13T03:06:02;99606.94;;;21.35;100.00
35519;BME280;21627;48.216;16.482;2023-07-13T03:08:30;99619.25;;;21.34;100.00
35519;BME280;21627;48.216;16.482;2023-07-13T03:11:10;99626.66;;;21.45;100.00
35519;BME280;21627;48.216;16.482;2023-07-13T03:13:42;99626.09;;;21.38;100.00
35519;BME280;21627;48.216;16.482;2023-07-13T03:16:10;99633.91;;;21.40;100.00
35519;BME280;21627;48.216;16.482;2023-07-13T03:18:38;99629.25;;;21.26;100.00
35519;BME280;21627;48.216;16.482;2023-07-13T03:21:06;99638.56;;;21.14;100.00
35519;BME280;21627;48.216;16.482;2023-07-13T03:23:33;99631.88;;;21.07;100.00
35519;BME280;21627;48.216;16.482;2023-07-13T03:26:09;99642.09;;;20.94;100.00
35519;BME280;21627;48.216;16.482;2023-07-13T03:28:37;99642.63;;;20.82;100.00
35519;BME280;21627;48.216;16.482;2023-07-13T03:31:12;99649.72;;;20.60;100.00
35519;BME280;21627;48.216;16.482;2023-07-13T03:33:41;99659.75;;;20.50;100.00
35519;BME280;21627;48.216;16.482;2023-07-13T03:36:17;99652.81;;;20.27;100.00
35519;BME280;21627;48.216;16.482;2023-07-13T03:38:51;99661.19;;;20.15;100.00
35519;BME280;21627;48.216;16.482;2023-07-13T03:41:19;99661.34;;;20.12;100.00
35519;BME280;21627;48.216;16.482;2023-07-13T03:43:46;99671.53;;;19.97;100.00
35519;BME280;21627;48.216;16.482;2023-07-13T03:46:15;99670.84;;;19.92;100.00
35519;BME280;21627;48.216;16.482;2023-07-13T03:48:45;99682.81;;;19.77;100.00
35519;BME280;21627;48.216;16.482;2023-07-13T03:51:15;99683.91;;;19.72;100.00
35519;BME280;21627;48.216;16.482;2023-07-13T03:53:44;99684.03;;;19.69;100.00
35519;BME280;21627;48.216;16.482;2023-07-13T03:56:12;99683.53;;;19.57;100.00
35519;BME280;21627;48.216;16.482;2023-07-13T03:58:44;99681.88;;;19.55;100.00
35519;BME280;21627;48.216;16.482;2023-07-13T04:01:14;99684.63;;;19.52;100.00
35519;BME280;21627;48.216;16.482;2023-07-13T04:03:41;99676.81;;;19.50;100.00
35519;BME280;21627;48.216;16.482;2023-07-13T04:06:22;99676.03;;;19.48;100.00
35519;BME280;21627;48.216;16.482;2023-07-13T04:08:59;99677.19;;;19.41;100.00
35519;BME280;21627;48.216;16.482;2023-07-13T04:11:30;99680.91;;;19.35;100.00
35519;BME280;21627;48.216;16.482;2023-07-13T04:13:59;99667.06;;;19.30;100.00
35519;BME280;21627;48.216;16.482;2023-07-13T04:16:26;99672.28;;;19.32;100.00
35519;BME280;21627;48.216;16.482;2023-07-13T04:18:55;99670.63;;;19.29;100.00
35519;BME280;21627;48.216;16.482;2023-07-13T04:21:28;99668.97;;;19.27;100.00
35519;BME280;21627;48.216;16.482;2023-07-13T04:23:57;99666.34;;;19.27;100.00
35519;BME280;21627;48.216;16.482;2023-07-13T04:26:25;99651.53;;;19.26;100.00
35519;BME280;21627;48.216;16.482;2023-07-13T04:28:52;99624.41;;;19.27;100.00
35519;BME280;21627;48.216;16.482;2023-07-13T04:31:20;99625.19;;;19.29;100.00
35519;BME280;21627;48.216;16.482;2023-07-13T04:33:48;99613.19;;;19.23;100.00
35519;BME280;21627;48.216;16.482;2023-07-13T04:36:16;99605.50;;;19.18;100.00
35519;BME280;21627;48.216;16.482;2023-07-13T04:38:44;99607.19;;;19.19;100.00
35519;BME280;21627;48.216;16.482;2023-07-13T04:41:12;99607.03;;;19.24;100.00
35519;BME280;21627;48.216;16.482;2023-07-13T04:43:40;99597.47;;;19.23;100.00
35519;BME280;21627;48.216;16.482;2023-07-13T04:46:11;99591.28;;;19.24;100.00
35519;BME280;21627;48.216;16.482;2023-07-13T04:48:39;99589.53;;;19.24;100.00
35519;BME280;21627;48.216;16.482;2023-07-13T04:51:07;99574.63;;;19.25;100.00
35519;BME280;21627;48.216;16.482;2023-07-13T04:53:34;99566.97;;;19.20;100.00
35519;BME280;21627;48.216;16.482;2023-07-13T04:56:03;99569.41;;;19.25;100.00
35519;BME280;21627;48.216;16.482;2023-07-13T04:58:31;99548.56;;;19.22;100.00
35519;BME280;21627;48.216;16.482;2023-07-13T05:01:04;99545.94;;;19.22;100.00
35519;BME280;21627;48.216;16.482;2023-07-13T05:03:32;99544.97;;;19.24;100.00
35519;BME280;21627;48.216;16.482;2023-07-13T05:06:06;99541.44;;;19.26;100.00
35519;BME280;21627;48.216;16.482;2023-07-13T05:08:33;99528.34;;;19.26;100.00
35519;BME280;21627;48.216;16.482;2023-07-13T05:11:03;99530.88;;;19.27;100.00
35519;BME280;21627;48.216;16.482;2023-07-13T05:13:30;99531.00;;;19.24;100.00
35519;BME280;21627;48.216;16.482;2023-07-13T05:16:04;99530.22;;;19.22;100.00
35519;BME280;21627;48.216;16.482;2023-07-13T05:18:33;99518.91;;;19.20;100.00
35519;BME280;21627;48.216;16.482;2023-07-13T05:21:07;99523.81;;;19.29;100.00
35519;BME280;21627;48.216;16.482;2023-07-13T05:23:36;99519.38;;;19.31;100.00
35519;BME280;21627;48.216;16.482;2023-07-13T05:26:04;99514.97;;;19.32;100.00
35519;BME280;21627;48.216;16.482;2023-07-13T05:28:36;99520.75;;;19.40;100.00
35519;BME280;21627;48.216;16.482;2023-07-13T05:31:05;99519.06;;;19.39;100.00
35519;BME280;21627;48.216;16.482;2023-07-13T05:33:34;99526.09;;;19.38;100.00
35519;BME280;21627;48.216;16.482;2023-07-13T05:36:01;99530.22;;;19.44;100.00
35519;BME280;21627;48.216;16.482;2023-07-13T05:38:29;99535.63;;;19.39;100.00
35519;BME280;21627;48.216;16.482;2023-07-13T05:40:56;99553.16;;;19.39;100.00
35519;BME280;21627;48.216;16.482;2023-07-13T05:43:24;99565.47;;;19.37;100.00
35519;BME280;21627;48.216;16.482;2023-07-13T05:45:54;99556.88;;;19.33;100.00
35519;BME280;21627;48.216;16.482;2023-07-13T05:48:21;99554.28;;;19.32;100.00
35519;BME280;21627;48.216;16.482;2023-07-13T05:50:49;99561.25;;;19.33;100.00
35519;BME280;21627;48.216;16.482;2023-07-13T05:53:16;99563.69;;;19.37;100.00
35519;BME280;21627;48.216;16.482;2023-07-13T05:55:45;99555.94;;;19.34;100.00
35519;BME280;21627;48.216;16.482;2023-07-13T05:58:18;99555.22;;;19.31;100.00
35519;BME280;21627;48.216;16.482;2023-07-13T06:00:46;99572.78;;;19.29;100.00
35519;BME280;21627;48.216;16.482;2023-07-13T06:03:15;99580.56;;;19.30;100.00
35519;BME280;21627;48.216;16.482;2023-07-13T06:05:42;99580.81;;;19.24;100.00
35519;BME280;21627;48.216;16.482;2023-07-13T06:08:09;99580.13;;;19.19;100.00
35519;BME280;21627;48.216;16.482;2023-07-13T06:10:37;99584.81;;;19.11;100.00
35519;BME280;21627;48.216;16.482;2023-07-13T06:13:04;99579.88;;;19.03;100.00
35519;BME280;21627;48.216;16.482;2023-07-13T06:15:31;99586.06;;;19.00;100.00
35519;BME280;21627;48.216;16.482;2023-07-13T06:18:01;99582.66;;;18.98;100.00
35519;BME280;21627;48.216;16.482;2023-07-13T06:20:29;99596.44;;;19.03;100.00
35519;BME280;21627;48.216;16.482;2023-07-13T06:22:56;99603.50;;;19.01;100.00
35519;BME280;21627;48.216;16.482;2023-07-13T06:25:24;99607.13;;;18.97;100.00
35519;BME280;21627;48.216;16.482;2023-07-13T06:27:51;99615.28;;;18.90;100.00
35519;BME280;21627;48.216;16.482;2023-07-13T06:30:18;99621.44;;;18.89;100.00
35519;BME280;21627;48.216;16.482;2023-07-13T06:32:45;99641.31;;;18.94;100.00
35519;BME280;21627;48.216;16.482;2023-07-13T06:35:12;99639.50;;;18.96;100.00
35519;BME280;21627;48.216;16.482;2023-07-13T06:37:40;99643.03;;;18.95;100.00
35519;BME280;21627;48.216;16.482;2023-07-13T06:40:08;99646.50;;;18.96;100.00
35519;BME280;21627;48.216;16.482;2023-07-13T06:42:35;99650.78;;;18.98;100.00
35519;BME280;21627;48.216;16.482;2023-07-13T06:45:03;99644.53;;;19.02;100.00
35519;BME280;21627;48.216;16.482;2023-07-13T06:47:30;99659.28;;;19.05;100.00
35519;BME280;21627;48.216;16.482;2023-07-13T06:50:00;99648.00;;;19.03;100.00
35519;BME280;21627;48.216;16.482;2023-07-13T06:52:28;99659.09;;;19.10;100.00
35519;BME280;21627;48.216;16.482;2023-07-13T06:54:55;99672.00;;;19.16;100.00
35519;BME280;21627;48.216;16.482;2023-07-13T06:57:22;99665.78;;;19.18;100.00
35519;BME280;21627;48.216;16.482;2023-07-13T06:59:49;99658.88;;;19.16;100.00
35519;BME280;21627;48.216;16.482;2023-07-13T07:02:16;99669.97;;;19.22;100.00
35519;BME280;21627;48.216;16.482;2023-07-13T07:04:43;99667.25;;;19.26;100.00
35519;BME280;21627;48.216;16.482;2023-07-13T07:07:11;99665.41;;;19.28;100.00
35519;BME280;21627;48.216;16.482;2023-07-13T07:09:38;99664.56;;;19.27;100.00
35519;BME280;21627;48.216;16.482;2023-07-13T07:12:05;99658.53;;;19.25;100.00
35519;BME280;21627;48.216;16.482;2023-07-13T07:14:32;99665.41;;;19.28;100.00
35519;BME280;21627;48.216;16.482;2023-07-13T07:17:01;99656.66;;;19.29;100.00
35519;BME280;21627;48.216;16.482;2023-07-13T07:19:30;99658.19;;;19.34;100.00
35519;BME280;21627;48.216;16.482;2023-07-13T07:21:57;99664.88;;;19.43;100.00
35519;BME280;21627;48.216;16.482;2023-07-13T07:24:24;99660.53;;;19.42;100.00
35519;BME280;21627;48.216;16.482;2023-07-13T07:26:51;99659.44;;;19.48;100.00
35519;BME280;21627;48.216;16.482;2023-07-13T07:29:21;99645.63;;;19.42;100.00
35519;BME280;21627;48.216;16.482;2023-07-13T07:31:52;99655.22;;;19.43;100.00
35519;BME280;21627;48.216;16.482;2023-07-13T07:34:22;99650.84;;;19.44;100.00
35519;BME280;21627;48.216;16.482;2023-07-13T07:36:49;99642.16;;;19.42;100.00
35519;BME280;21627;48.216;16.482;2023-07-13T07:39:19;99650.03;;;19.42;100.00
35519;BME280;21627;48.216;16.482;2023-07-13T07:41:46;99643.81;;;19.44;100.00
35519;BME280;21627;48.216;16.482;2023-07-13T07:44:17;99640.34;;;19.44;100.00
35519;BME280;21627;48.216;16.482;2023-07-13T07:46:44;99642.63;;;19.53;100.00
35519;BME280;21627;48.216;16.482;2023-07-13T07:49:11;99645.16;;;19.55;100.00
35519;BME280;21627;48.216;16.482;2023-07-13T07:51:38;99634.84;;;19.50;100.00
35519;BME280;21627;48.216;16.482;2023-07-13T07:54:05;99640.69;;;19.58;100.00
35519;BME280;21627;48.216;16.482;2023-07-13T07:56:33;99644.81;;;19.64;100.00
35519;BME280;21627;48.216;16.482;2023-07-13T07:59:03;99660.53;;;19.65;100.00
35519;BME280;21627;48.216;16.482;2023-07-13T08:01:33;99656.16;;;19.64;100.00
35519;BME280;21627;48.216;16.482;2023-07-13T08:04:03;99647.19;;;19.72;100.00
35519;BME280;21627;48.216;16.482;2023-07-13T08:06:33;99659.28;;;19.76;100.00
35519;BME280;21627;48.216;16.482;2023-07-13T08:09:03;99649.69;;;19.75;100.00
35519;BME280;21627;48.216;16.482;2023-07-13T08:11:31;99658.03;;;19.84;100.00
35519;BME280;21627;48.216;16.482;2023-07-13T08:14:01;99654.13;;;19.95;100.00
35519;BME280;21627;48.216;16.482;2023-07-13T08:16:28;99651.38;;;19.98;100.00
35519;BME280;21627;48.216;16.482;2023-07-13T08:18:55;99647.72;;;20.02;100.00
35519;BME280;21627;48.216;16.482;2023-07-13T08:21:22;99660.09;;;20.20;100.00
35519;BME280;21627;48.216;16.482;2023-07-13T08:23:53;99657.75;;;20.35;100.00
35519;BME280;21627;48.216;16.482;2023-07-13T08:26:20;99667.38;;;20.56;100.00
35519;BME280;21627;48.216;16.482;2023-07-13T08:28:48;99656.44;;;20.67;100.00
35519;BME280;21627;48.216;16.482;2023-07-13T08:31:15;99646.28;;;20.78;100.00
35519;BME280;21627;48.216;16.482;2023-07-13T08:33:43;99657.72;;;20.98;100.00
35519;BME280;21627;48.216;16.482;2023-07-13T08:36:10;99658.16;;;21.07;100.00
35519;BME280;21627;48.216;16.482;2023-07-13T08:38:37;99660.69;;;21.29;100.00
35519;BME280;21627;48.216;16.482;2023-07-13T08:41:17;99653.22;;;21.39;100.00
35519;BME280;21627;48.216;16.482;2023-07-13T08:43:56;99657.28;;;21.65;100.00
35519;BME280;21627;48.216;16.482;2023-07-13T08:46:43;99656.97;;;21.90;100.00
35519;BME280;21627;48.216;16.482;2023-07-13T08:49:16;99658.09;;;22.03;100.00
35519;BME280;21627;48.216;16.482;2023-07-13T08:51:59;99658.94;;;22.23;100.00
35519;BME280;21627;48.216;16.482;2023-07-13T08:54:43;99658.63;;;22.46;100.00
35519;BME280;21627;48.216;16.482;2023-07-13T08:57:18;99659.06;;;22.55;100.00
35519;BME280;21627;48.216;16.482;2023-07-13T08:59:46;99647.66;;;22.72;100.00
35519;BME280;21627;48.216;16.482;2023-07-13T09:05:18;99668.97;;;23.02;100.00
35519;BME280;21627;48.216;16.482;2023-07-13T09:10:53;99670.47;;;23.23;100.00
35519;BME280;21627;48.216;16.482;2023-07-13T09:13:46;99678.91;;;23.46;100.00
35519;BME280;21627;48.216;16.482;2023-07-13T09:16:17;99685.31;;;23.58;100.00
35519;BME280;21627;48.216;16.482;2023-07-13T09:18:49;99689.94;;;23.70;100.00
35519;BME280;21627;48.216;16.482;2023-07-13T09:21:25;99677.09;;;23.80;100.00
35519;BME280;21627;48.216;16.482;2023-07-13T09:23:58;99674.28;;;23.83;100.00
35519;BME280;21627;48.216;16.482;2023-07-13T09:26:29;99681.59;;;23.93;100.00
35519;BME280;21627;48.216;16.482;2023-07-13T09:29:30;99684.25;;;24.09;100.00
35519;BME280;21627;48.216;16.482;2023-07-13T09:32:03;99682.59;;;24.23;100.00
35519;BME280;21627;48.216;16.482;2023-07-13T09:34:33;99679.25;;;24.35;100.00
35519;BME280;21627;48.216;16.482;2023-07-13T09:37:00;99676.31;;;24.55;100.00
35519;BME280;21627;48.216;16.482;2023-07-13T09:39:33;99659.53;;;24.71;100.00
35519;BME280;21627;48.216;16.482;2023-07-13T09:47:28;99674.28;;;24.89;100.00
35519;BME280;21627;48.216;16.482;2023-07-13T09:49:58;99674.28;;;24.75;99.19
35519;BME280;21627;48.216;16.482;2023-07-13T09:52:46;99669.47;;;24.81;100.00
35519;BME280;21627;48.216;16.482;2023-07-13T09:57:54;99663.81;;;25.02;96.61
35519;BME280;21627;48.216;16.482;2023-07-13T10:00:29;99644.19;;;25.20;90.37
35519;BME280;21627;48.216;16.482;2023-07-13T10:03:27;99662.78;;;25.47;88.96
35519;BME280;21627;48.216;16.482;2023-07-13T10:06:09;99658.22;;;25.64;92.67
35519;BME280;21627;48.216;16.482;2023-07-13T10:08:38;99657.31;;;25.78;87.83
35519;BME280;21627;48.216;16.482;2023-07-13T10:11:29;99660.91;;;25.91;89.19
35519;BME280;21627;48.216;16.482;2023-07-13T10:14:00;99663.69;;;26.02;90.65
35519;BME280;21627;48.216;16.482;2023-07-13T10:16:33;99671.34;;;26.07;87.61
35519;BME280;21627;48.216;16.482;2023-07-13T10:19:24;99661.25;;;26.26;85.93
35519;BME280;21627;48.216;16.482;2023-07-13T10:21:56;99664.22;;;26.34;86.10
35519;BME280;21627;48.216;16.482;2023-07-13T10:24:33;99676.53;;;26.48;85.81
35519;BME280;21627;48.216;16.482;2023-07-13T10:27:08;99680.66;;;26.67;82.71
35519;BME280;21627;48.216;16.482;2023-07-13T10:30:09;99682.66;;;26.76;82.32
35519;BME280;21627;48.216;16.482;2023-07-13T10:32:43;99676.41;;;26.77;84.50
35519;BME280;21627;48.216;16.482;2023-07-13T10:35:14;99687.34;;;26.72;74.71
35519;BME280;21627;48.216;16.482;2023-07-13T10:38:05;99692.13;;;26.80;76.61
35519;BME280;21627;48.216;16.482;2023-07-13T10:40:41;99687.78;;;26.92;81.62
35519;BME280;21627;48.216;16.482;2023-07-13T10:45:48;99697.88;;;27.00;72.34
35519;BME280;21627;48.216;16.482;2023-07-13T10:48:17;99697.22;;;26.96;73.48
35519;BME280;21627;48.216;16.482;2023-07-13T10:50:46;99691.19;;;26.94;75.63
35519;BME280;21627;48.216;16.482;2023-07-13T10:53:31;99685.13;;;27.05;68.98
35519;BME280;21627;48.216;16.482;2023-07-13T10:58:43;99679.50;;;26.96;70.00
35519;BME280;21627;48.216;16.482;2023-07-13T11:01:17;99671.66;;;26.95;75.55
35519;BME280;21627;48.216;16.482;2023-07-13T11:04:14;99690.66;;;27.02;71.58
35519;BME280;21627;48.216;16.482;2023-07-13T11:06:43;99686.41;;;26.99;73.74
35519;BME280;21627;48.216;16.482;2023-07-13T11:09:39;99685.53;;;26.98;72.75
35519;BME280;21627;48.216;16.482;2023-07-13T11:15:10;99687.47;;;26.96;73.29
35519;BME280;21627;48.216;16.482;2023-07-13T11:17:49;99682.03;;;26.85;70.37
35519;BME280;21627;48.216;16.482;2023-07-13T11:25:40;99689.25;;;26.96;73.32
35519;BME280;21627;48.216;16.482;2023-07-13T11:34:08;99703.16;;;26.87;67.09
35519;BME280;21627;48.216;16.482;2023-07-13T11:36:18;99695.22;;;26.74;68.00
35519;BME280;21627;48.216;16.482;2023-07-13T11:39:24;99699.44;;;26.64;66.43
35519;BME280;21627;48.216;16.482;2023-07-13T11:42:00;99709.38;;;26.60;68.91
35519;BME280;21627;48.216;16.482;2023-07-13T11:44:31;99702.19;;;26.62;69.96
35519;BME280;21627;48.216;16.482;2023-07-13T11:47:16;99696.25;;;26.71;70.32
35519;BME280;21627;48.216;16.482;2023-07-13T11:49:48;99693.94;;;26.80;67.72
35519;BME280;21627;48.216;16.482;2023-07-13T11:52:20;99693.72;;;26.83;69.30
35519;BME280;21627;48.216;16.482;2023-07-13T11:54:56;99687.47;;;27.09;65.18
35519;BME280;21627;48.216;16.482;2023-07-13T11:57:38;99690.44;;;27.43;64.88
35519;BME280;21627;48.216;16.482;2023-07-13T12:00:17;99683.66;;;27.76;65.98
35519;BME280;21627;48.216;16.482;2023-07-13T12:02:50;99680.06;;;28.01;64.50
35519;BME280;21627;48.216;16.482;2023-07-13T12:05:20;99682.94;;;28.22;65.26
35519;BME280;21627;48.216;16.482;2023-07-13T12:07:50;99672.53;;;28.43;65.70
35519;BME280;21627;48.216;16.482;2023-07-13T12:10:25;99676.00;;;28.67;57.32
35519;BME280;21627;48.216;16.482;2023-07-13T12:13:01;99672.75;;;28.75;56.64
35519;BME280;21627;48.216;16.482;2023-07-13T12:15:50;99656.09;;;28.96;55.67
35519;BME280;21627;48.216;16.482;2023-07-13T12:18:22;99666.84;;;28.94;54.79
35519;BME280;21627;48.216;16.482;2023-07-13T12:20:51;99662.50;;;28.93;57.31
35519;BME280;21627;48.216;16.482;2023-07-13T12:23:34;99650.91;;;29.05;56.57
35519;BME280;21627;48.216;16.482;2023-07-13T12:26:05;99660.38;;;29.21;54.64
35519;BME280;21627;48.216;16.482;2023-07-13T12:31:06;99651.25;;;29.46;54.93
35519;BME280;21627;48.216;16.482;2023-07-13T12:33:34;99656.19;;;29.62;54.78
35519;BME280;21627;48.216;16.482;2023-07-13T12:36:04;99654.72;;;29.80;54.30
35519;BME280;21627;48.216;16.482;2023-07-13T12:38:32;99655.03;;;29.98;51.38
35519;BME280;21627;48.216;16.482;2023-07-13T12:41:01;99666.13;;;30.14;51.80
35519;BME280;21627;48.216;16.482;2023-07-13T12:43:35;99657.63;;;30.20;50.17
35519;BME280;21627;48.216;16.482;2023-07-13T12:46:30;99662.09;;;30.20;50.26
35519;BME280;21627;48.216;16.482;2023-07-13T12:48:58;99670.19;;;29.97;47.50
35519;BME280;21627;48.216;16.482;2023-07-13T12:51:43;99669.25;;;29.76;50.24
35519;BME280;21627;48.216;16.482;2023-07-13T12:54:17;99651.00;;;29.60;51.40
35519;BME280;21627;48.216;16.482;2023-07-13T12:56:50;99645.06;;;29.45;48.01
35519;BME280;21627;48.216;16.482;2023-07-13T12:59:22;99640.13;;;29.41;53.31
35519;BME280;21627;48.216;16.482;2023-07-13T13:01:50;99637.25;;;29.21;52.20
35519;BME280;21627;48.216;16.482;2023-07-13T13:04:18;99644.72;;;29.05;51.98
35519;BME280;21627;48.216;16.482;2023-07-13T13:06:58;99645.66;;;28.92;53.82
35519;BME280;21627;48.216;16.482;2023-07-13T13:09:27;99641.53;;;28.66;54.04
35519;BME280;21627;48.216;16.482;2023-07-13T13:11:55;99645.38;;;28.62;53.66
35519;BME280;21627;48.216;16.482;2023-07-13T13:14:22;99642.97;;;28.59;54.37
35519;BME280;21627;48.216;16.482;2023-07-13T13:16:50;99635.09;;;28.57;54.51
35519;BME280;21627;48.216;16.482;2023-07-13T13:19:25;99636.56;;;28.61;57.12
35519;BME280;21627;48.216;16.482;2023-07-13T13:21:55;99622.66;;;28.80;56.96
35519;BME280;21627;48.216;16.482;2023-07-13T13:24:27;99628.47;;;28.74;51.81
35519;BME280;21627;48.216;16.482;2023-07-13T13:26:55;99616.84;;;28.75;57.60
35519;BME280;21627;48.216;16.482;2023-07-13T13:29:25;99622.53;;;28.59;55.00
35519;BME280;21627;48.216;16.482;2023-07-13T13:31:54;99628.19;;;28.55;57.02
35519;BME280;21627;48.216;16.482;2023-07-13T13:34:24;99627.22;;;28.44;57.43
35519;BME280;21627;48.216;16.482;2023-07-13T13:36:53;99644.34;;;28.40;59.20
35519;BME280;21627;48.216;16.482;2023-07-13T13:41:59;99646.34;;;28.25;57.37